sensor_id;sensor_type;location;lat;lon;timestamp;pressure;altitude;pressure_sealevel;temperature
64394;BMP280;50712;49.506;10.400;2022-09-09T00:00:20;97716.94;;;18.89
64394;BMP280;50712;49.506;10.400;2022-09-09T00:02:01;97717.69;;;18.90
64394;BMP280;50712;49.506;10.400;2022-09-09T00:02:38;97708.66;;;18.89
64394;BMP280;50712;49.506;10.400;2022-09-09T00:03:53;97717.69;;;18.90
64394;BMP280;50712;49.506;10.400;2022-09-09T00:04:45;97714.19;;;18.89
64394;BMP280;50712;49.506;10.400;2022-09-09T00:05:37;97712.66;;;18.88
64394;BMP280;50712;49.506;10.400;2022-09-09T00:06:21;97717.69;;;18.90
64394;BMP280;50712;49.506;10.400;2022-09-09T00:07:41;97723.72;;;18.88
64394;BMP280;50712;49.506;10.400;2022-09-09T00:08:19;97713.19;;;18.87
64394;BMP280;50712;49.506;10.400;2022-09-09T00:10:13;97704.16;;;18.86
64394;BMP280;50712;49.506;10.400;2022-09-09T00:10:58;97703.41;;;18.86
64394;BMP280;50712;49.506;10.400;2022-09-09T00:11:36;97709.44;;;18.84
64394;BMP280;50712;49.506;10.400;2022-09-09T00:12:15;97712.22;;;18.84
64394;BMP280;50712;49.506;10.400;2022-09-09T00:13:46;97708.69;;;18.84
64394;BMP280;50712;49.506;10.400;2022-09-09T00:14:59;97707.19;;;18.83
64394;BMP280;50712;49.506;10.400;2022-09-09T00:16:33;97702.94;;;18.82
64394;BMP280;50712;49.506;10.400;2022-09-09T00:17:53;97707.19;;;18.83
64394;BMP280;50712;49.506;10.400;2022-09-09T00:18:22;97703.44;;;18.80
64394;BMP280;50712;49.506;10.400;2022-09-09T00:19:12;97704.22;;;18.81
64394;BMP280;50712;49.506;10.400;2022-09-09T00:21:07;97698.69;;;18.81
64394;BMP280;50712;49.506;10.400;2022-09-09T00:21:47;97704.22;;;18.81
64394;BMP280;50712;49.506;10.400;2022-09-09T00:22:20;97703.44;;;18.80
64394;BMP280;50712;49.506;10.400;2022-09-09T00:22:54;97704.97;;;18.81
64394;BMP280;50712;49.506;10.400;2022-09-09T00:23:33;97708.97;;;18.80
64394;BMP280;50712;49.506;10.400;2022-09-09T00:24:18;97700.69;;;18.80
64394;BMP280;50712;49.506;10.400;2022-09-09T00:24:51;97712.22;;;18.79
64394;BMP280;50712;49.506;10.400;2022-09-09T00:25:24;97712.22;;;18.79
64394;BMP280;50712;49.506;10.400;2022-09-09T00:26:42;97706.47;;;18.77
64394;BMP280;50712;49.506;10.400;2022-09-09T00:27:19;97701.47;;;18.75
64394;BMP280;50712;49.506;10.400;2022-09-09T00:28:19;97702.22;;;18.76
64394;BMP280;50712;49.506;10.400;2022-09-09T00:29:33;97699.97;;;18.74
64394;BMP280;50712;49.506;10.400;2022-09-09T00:30:52;97701.97;;;18.74
64394;BMP280;50712;49.506;10.400;2022-09-09T00:31:30;97698.44;;;18.73
64394;BMP280;50712;49.506;10.400;2022-09-09T00:32:07;97699.19;;;18.74
64394;BMP280;50712;49.506;10.400;2022-09-09T00:32:42;97702.72;;;18.74
64394;BMP280;50712;49.506;10.400;2022-09-09T00:33:13;97694.97;;;18.73
64394;BMP280;50712;49.506;10.400;2022-09-09T00:33:45;97689.44;;;18.73
64394;BMP280;50712;49.506;10.400;2022-09-09T00:34:18;97687.94;;;18.72
64394;BMP280;50712;49.506;10.400;2022-09-09T00:34:53;97687.94;;;18.72
64394;BMP280;50712;49.506;10.400;2022-09-09T00:35:36;97691.94;;;18.71
64394;BMP280;50712;49.506;10.400;2022-09-09T00:36:14;97691.19;;;18.70
64394;BMP280;50712;49.506;10.400;2022-09-09T00:36:48;97695.19;;;18.69
64394;BMP280;50712;49.506;10.400;2022-09-09T00:37:22;97693.19;;;18.69
64394;BMP280;50712;49.506;10.400;2022-09-09T00:38:08;97690.97;;;18.68
64394;BMP280;50712;49.506;10.400;2022-09-09T00:38:47;97693.75;;;18.68
64394;BMP280;50712;49.506;10.400;2022-09-09T00:39:25;97692.22;;;18.67
64394;BMP280;50712;49.506;10.400;2022-09-09T00:40:02;97685.94;;;18.66
64394;BMP280;50712;49.506;10.400;2022-09-09T00:40:55;97692.97;;;18.67
64394;BMP280;50712;49.506;10.400;2022-09-09T00:42:12;97691.72;;;18.68
64394;BMP280;50712;49.506;10.400;2022-09-09T00:43:55;97691.72;;;18.68
64394;BMP280;50712;49.506;10.400;2022-09-09T00:44:59;97697.22;;;18.68
64394;BMP280;50712;49.506;10.400;2022-09-09T00:48:20;97701.25;;;18.67
64394;BMP280;50712;49.506;10.400;2022-09-09T00:51:30;97696.22;;;18.66
64394;BMP280;50712;49.506;10.400;2022-09-09T00:54:04;97694.97;;;18.67
64394;BMP280;50712;49.506;10.400;2022-09-09T00:56:33;97696.72;;;18.70
64394;BMP280;50712;49.506;10.400;2022-09-09T00:57:13;97698.22;;;18.71
64394;BMP280;50712;49.506;10.400;2022-09-09T00:57:53;97698.22;;;18.71
64394;BMP280;50712;49.506;10.400;2022-09-09T00:58:24;97696.22;;;18.72
64394;BMP280;50712;49.506;10.400;2022-09-09T00:59:03;97697.72;;;18.73
64394;BMP280;50712;49.506;10.400;2022-09-09T01:00:29;97697.97;;;18.75
64394;BMP280;50712;49.506;10.400;2022-09-09T01:01:05;97698.72;;;18.75
64394;BMP280;50712;49.506;10.400;2022-09-09T01:01:41;97698.72;;;18.75
64394;BMP280;50712;49.506;10.400;2022-09-09T01:02:29;97702.22;;;18.76
64394;BMP280;50712;49.506;10.400;2022-09-09T01:04:09;97693.44;;;18.77
64394;BMP280;50712;49.506;10.400;2022-09-09T01:04:46;97700.44;;;18.78
64394;BMP280;50712;49.506;10.400;2022-09-09T01:05:20;97694.94;;;18.78
64394;BMP280;50712;49.506;10.400;2022-09-09T01:06:01;97703.94;;;18.79
64394;BMP280;50712;49.506;10.400;2022-09-09T01:06:48;97708.72;;;18.78
64394;BMP280;50712;49.506;10.400;2022-09-09T01:07:22;97698.41;;;18.79
64394;BMP280;50712;49.506;10.400;2022-09-09T01:07:53;97699.19;;;18.79
64394;BMP280;50712;49.506;10.400;2022-09-09T01:08:42;97700.44;;;18.78
64394;BMP280;50712;49.506;10.400;2022-09-09T01:09:26;97700.69;;;18.80
64394;BMP280;50712;49.506;10.400;2022-09-09T01:10:04;97701.44;;;18.81
64394;BMP280;50712;49.506;10.400;2022-09-09T01:10:51;97699.44;;;18.81
64394;BMP280;50712;49.506;10.400;2022-09-09T01:11:32;97696.13;;;18.83
64394;BMP280;50712;49.506;10.400;2022-09-09T01:12:23;97696.91;;;18.83
64394;BMP280;50712;49.506;10.400;2022-09-09T01:12:57;97696.91;;;18.83
64394;BMP280;50712;49.506;10.400;2022-09-09T01:13:34;97696.91;;;18.83
64394;BMP280;50712;49.506;10.400;2022-09-09T01:14:16;97708.19;;;18.85
64394;BMP280;50712;49.506;10.400;2022-09-09T01:15:02;97700.41;;;18.84
64394;BMP280;50712;49.506;10.400;2022-09-09T01:15:41;97701.94;;;18.85
64394;BMP280;50712;49.506;10.400;2022-09-09T01:16:14;97703.41;;;18.86
64394;BMP280;50712;49.506;10.400;2022-09-09T01:16:46;97706.94;;;18.86
64394;BMP280;50712;49.506;10.400;2022-09-09T01:17:21;97700.13;;;18.87
64394;BMP280;50712;49.506;10.400;2022-09-09T01:18:10;97703.66;;;18.88
64394;BMP280;50712;49.506;10.400;2022-09-09T01:18:49;97702.91;;;18.87
64394;BMP280;50712;49.506;10.400;2022-09-09T01:19:29;97704.38;;;18.88
64394;BMP280;50712;49.506;10.400;2022-09-09T01:20:28;97701.63;;;18.88
64394;BMP280;50712;49.506;10.400;2022-09-09T01:22:12;97700.38;;;18.89
64394;BMP280;50712;49.506;10.400;2022-09-09T01:24:36;97698.59;;;18.92
64394;BMP280;50712;49.506;10.400;2022-09-09T01:26:42;97697.84;;;18.91
64394;BMP280;50712;49.506;10.400;2022-09-09T01:27:21;97694.38;;;18.91
64394;BMP280;50712;49.506;10.400;2022-09-09T01:27:54;97695.81;;;18.92
64394;BMP280;50712;49.506;10.400;2022-09-09T01:28:28;97697.84;;;18.91
64394;BMP280;50712;49.506;10.400;2022-09-09T01:29:07;97694.38;;;18.91
64394;BMP280;50712;49.506;10.400;2022-09-09T01:29:42;97695.81;;;18.92
64394;BMP280;50712;49.506;10.400;2022-09-09T01:30:14;97698.59;;;18.92
64394;BMP280;50712;49.506;10.400;2022-09-09T01:30:47;97697.13;;;18.91
64394;BMP280;50712;49.506;10.400;2022-09-09T01:31:28;97700.59;;;18.91
64394;BMP280;50712;49.506;10.400;2022-09-09T01:32:35;97692.31;;;18.91
64394;BMP280;50712;49.506;10.400;2022-09-09T01:33:10;97697.13;;;18.91
64394;BMP280;50712;49.506;10.400;2022-09-09T01:33:44;97697.84;;;18.91
64394;BMP280;50712;49.506;10.400;2022-09-09T01:34:15;97688.84;;;18.91
64394;BMP280;50712;49.506;10.400;2022-09-09T01:34:47;97689.56;;;18.91
64394;BMP280;50712;49.506;10.400;2022-09-09T01:37:03;97684.56;;;18.90
64394;BMP280;50712;49.506;10.400;2022-09-09T01:37:37;97686.56;;;18.89
64394;BMP280;50712;49.506;10.400;2022-09-09T01:38:07;97687.34;;;18.90
64394;BMP280;50712;49.506;10.400;2022-09-09T01:38:38;97683.06;;;18.89
64394;BMP280;50712;49.506;10.400;2022-09-09T01:39:10;97693.63;;;18.90
64394;BMP280;50712;49.506;10.400;2022-09-09T01:39:42;97690.84;;;18.90
64394;BMP280;50712;49.506;10.400;2022-09-09T01:40:17;97695.63;;;18.90
64394;BMP280;50712;49.506;10.400;2022-09-09T01:40:48;97695.63;;;18.90
64394;BMP280;50712;49.506;10.400;2022-09-09T01:41:19;97696.84;;;18.89
64394;BMP280;50712;49.506;10.400;2022-09-09T01:41:55;97703.13;;;18.89
64394;BMP280;50712;49.506;10.400;2022-09-09T01:42:26;97691.34;;;18.89
64394;BMP280;50712;49.506;10.400;2022-09-09T01:42:56;97701.63;;;18.88
64394;BMP280;50712;49.506;10.400;2022-09-09T01:43:28;97701.63;;;18.88
64394;BMP280;50712;49.506;10.400;2022-09-09T01:43:59;97695.38;;;18.88
64394;BMP280;50712;49.506;10.400;2022-09-09T01:44:32;97698.88;;;18.88
64394;BMP280;50712;49.506;10.400;2022-09-09T01:45:05;97700.13;;;18.87
64394;BMP280;50712;49.506;10.400;2022-09-09T01:45:37;97698.88;;;18.88
64394;BMP280;50712;49.506;10.400;2022-09-09T01:46:09;97696.84;;;18.89
64394;BMP280;50712;49.506;10.400;2022-09-09T01:46:42;97693.34;;;18.88
64394;BMP280;50712;49.506;10.400;2022-09-09T01:47:18;97689.84;;;18.88
64394;BMP280;50712;49.506;10.400;2022-09-09T01:48:09;97696.09;;;18.88
64394;BMP280;50712;49.506;10.400;2022-09-09T01:49:06;97693.34;;;18.88
64394;BMP280;50712;49.506;10.400;2022-09-09T01:49:38;97691.84;;;18.87
64394;BMP280;50712;49.506;10.400;2022-09-09T01:50:17;97684.34;;;18.88
64394;BMP280;50712;49.506;10.400;2022-09-09T01:50:48;97687.81;;;18.88
64394;BMP280;50712;49.506;10.400;2022-09-09T01:51:19;97695.38;;;18.88
64394;BMP280;50712;49.506;10.400;2022-09-09T01:51:51;97688.56;;;18.89
64394;BMP280;50712;49.506;10.400;2022-09-09T01:52:31;97688.56;;;18.89
64394;BMP280;50712;49.506;10.400;2022-09-09T01:53:06;97696.84;;;18.89
64394;BMP280;50712;49.506;10.400;2022-09-09T01:53:38;97687.81;;;18.88
64394;BMP280;50712;49.506;10.400;2022-09-09T01:54:11;97686.56;;;18.89
64394;BMP280;50712;49.506;10.400;2022-09-09T01:54:42;97685.81;;;18.89
64394;BMP280;50712;49.506;10.400;2022-09-09T01:55:18;97683.06;;;18.89
64394;BMP280;50712;49.506;10.400;2022-09-09T01:56:18;97683.81;;;18.89
64394;BMP280;50712;49.506;10.400;2022-09-09T01:57:17;97681.81;;;18.90
64394;BMP280;50712;49.506;10.400;2022-09-09T01:59:18;97687.34;;;18.90
64394;BMP280;50712;49.506;10.400;2022-09-09T02:00:05;97685.06;;;18.88
64394;BMP280;50712;49.506;10.400;2022-09-09T02:00:49;97685.06;;;18.88
64394;BMP280;50712;49.506;10.400;2022-09-09T02:02:10;97688.56;;;18.89
64394;BMP280;50712;49.506;10.400;2022-09-09T02:03:57;97687.81;;;18.88
64394;BMP280;50712;49.506;10.400;2022-09-09T02:05:59;97685.06;;;18.88
64394;BMP280;50712;49.506;10.400;2022-09-09T02:06:38;97690.59;;;18.88
64394;BMP280;50712;49.506;10.400;2022-09-09T02:07:40;97685.06;;;18.88
64394;BMP280;50712;49.506;10.400;2022-09-09T02:08:20;97686.34;;;18.87
64394;BMP280;50712;49.506;10.400;2022-09-09T02:09:05;97683.06;;;18.89
64394;BMP280;50712;49.506;10.400;2022-09-09T02:09:37;97684.34;;;18.88
64394;BMP280;50712;49.506;10.400;2022-09-09T02:10:17;97689.84;;;18.88
64394;BMP280;50712;49.506;10.400;2022-09-09T02:11:11;97693.84;;;18.87
64394;BMP280;50712;49.506;10.400;2022-09-09T02:11:53;97686.34;;;18.87
64394;BMP280;50712;49.506;10.400;2022-09-09T02:12:43;97686.34;;;18.87
64394;BMP280;50712;49.506;10.400;2022-09-09T02:13:17;97683.56;;;18.87
64394;BMP280;50712;49.506;10.400;2022-09-09T02:13:51;97688.34;;;18.87
64394;BMP280;50712;49.506;10.400;2022-09-09T02:14:26;97694.63;;;18.87
64394;BMP280;50712;49.506;10.400;2022-09-09T02:15:06;97690.59;;;18.88
64394;BMP280;50712;49.506;10.400;2022-09-09T02:15:54;97681.34;;;18.86
64394;BMP280;50712;49.506;10.400;2022-09-09T02:17:01;97689.63;;;18.86
64394;BMP280;50712;49.506;10.400;2022-09-09T02:17:55;97690.13;;;18.84
64394;BMP280;50712;49.506;10.400;2022-09-09T02:18:32;97687.84;;;18.83
64394;BMP280;50712;49.506;10.400;2022-09-09T02:19:15;97683.59;;;18.82
64394;BMP280;50712;49.506;10.400;2022-09-09T02:20:16;97691.88;;;18.82
64394;BMP280;50712;49.506;10.400;2022-09-09T02:20:53;97687.09;;;18.82
64394;BMP280;50712;49.506;10.400;2022-09-09T02:21:24;97688.63;;;18.83
64394;BMP280;50712;49.506;10.400;2022-09-09T02:21:59;97687.84;;;18.83
64394;BMP280;50712;49.506;10.400;2022-09-09T02:22:30;97681.56;;;18.82
64394;BMP280;50712;49.506;10.400;2022-09-09T02:23:05;97680.34;;;18.83
64394;BMP280;50712;49.506;10.400;2022-09-09T02:23:39;97684.34;;;18.82
64394;BMP280;50712;49.506;10.400;2022-09-09T02:24:15;97683.09;;;18.83
64394;BMP280;50712;49.506;10.400;2022-09-09T02:24:52;97688.63;;;18.83
64394;BMP280;50712;49.506;10.400;2022-09-09T02:25:30;97685.84;;;18.83
64394;BMP280;50712;49.506;10.400;2022-09-09T02:26:11;97684.59;;;18.84
64394;BMP280;50712;49.506;10.400;2022-09-09T02:26:49;97689.38;;;18.84
64394;BMP280;50712;49.506;10.400;2022-09-09T02:27:23;97685.38;;;18.85
64394;BMP280;50712;49.506;10.400;2022-09-09T02:27:54;97691.63;;;18.85
64394;BMP280;50712;49.506;10.400;2022-09-09T02:28:25;97688.13;;;18.85
64394;BMP280;50712;49.506;10.400;2022-09-09T02:29:01;97697.91;;;18.86
64394;BMP280;50712;49.506;10.400;2022-09-09T02:29:36;97697.91;;;18.86
64394;BMP280;50712;49.506;10.400;2022-09-09T02:30:11;97688.84;;;18.85
64394;BMP280;50712;49.506;10.400;2022-09-09T02:30:48;97692.38;;;18.86
64394;BMP280;50712;49.506;10.400;2022-09-09T02:31:25;97700.66;;;18.86
64394;BMP280;50712;49.506;10.400;2022-09-09T02:32:03;97691.09;;;18.87
64394;BMP280;50712;49.506;10.400;2022-09-09T02:32:41;97693.84;;;18.87
64394;BMP280;50712;49.506;10.400;2022-09-09T02:33:15;97691.09;;;18.87
64394;BMP280;50712;49.506;10.400;2022-09-09T02:33:51;97689.09;;;18.87
64394;BMP280;50712;49.506;10.400;2022-09-09T02:34:26;97686.34;;;18.87
64394;BMP280;50712;49.506;10.400;2022-09-09T02:35:00;97686.34;;;18.87
64394;BMP280;50712;49.506;10.400;2022-09-09T02:35:39;97689.09;;;18.87
64394;BMP280;50712;49.506;10.400;2022-09-09T02:36:13;97693.84;;;18.87
64394;BMP280;50712;49.506;10.400;2022-09-09T02:36:46;97690.38;;;18.86
64394;BMP280;50712;49.506;10.400;2022-09-09T02:37:20;97698.66;;;18.86
64394;BMP280;50712;49.506;10.400;2022-09-09T02:37:58;97697.91;;;18.86
64394;BMP280;50712;49.506;10.400;2022-09-09T02:38:35;97695.13;;;18.86
64394;BMP280;50712;49.506;10.400;2022-09-09T02:39:15;97695.13;;;18.86
64394;BMP280;50712;49.506;10.400;2022-09-09T02:39:46;97695.13;;;18.86
64394;BMP280;50712;49.506;10.400;2022-09-09T02:40:20;97701.41;;;18.86
64394;BMP280;50712;49.506;10.400;2022-09-09T02:40:57;97694.38;;;18.85
64394;BMP280;50712;49.506;10.400;2022-09-09T02:41:32;97697.91;;;18.86
64394;BMP280;50712;49.506;10.400;2022-09-09T02:42:04;97703.41;;;18.86
64394;BMP280;50712;49.506;10.400;2022-09-09T02:42:40;97704.16;;;18.86
64394;BMP280;50712;49.506;10.400;2022-09-09T02:43:11;97704.16;;;18.86
64394;BMP280;50712;49.506;10.400;2022-09-09T02:43:46;97701.41;;;18.86
64394;BMP280;50712;49.506;10.400;2022-09-09T02:44:18;97699.38;;;18.87
64394;BMP280;50712;49.506;10.400;2022-09-09T02:44:53;97700.66;;;18.86
64394;BMP280;50712;49.506;10.400;2022-09-09T02:45:25;97704.16;;;18.86
64394;BMP280;50712;49.506;10.400;2022-09-09T02:48:08;97700.66;;;18.86
64394;BMP280;50712;49.506;10.400;2022-09-09T02:50:29;97699.38;;;18.87
64394;BMP280;50712;49.506;10.400;2022-09-09T02:51:13;97693.84;;;18.87
64394;BMP280;50712;49.506;10.400;2022-09-09T02:54:48;97693.34;;;18.88
64394;BMP280;50712;49.506;10.400;2022-09-09T02:56:05;97680.31;;;18.89
64394;BMP280;50712;49.506;10.400;2022-09-09T02:56:51;97686.56;;;18.89
64394;BMP280;50712;49.506;10.400;2022-09-09T02:57:34;97681.06;;;18.89
64394;BMP280;50712;49.506;10.400;2022-09-09T02:58:07;97690.84;;;18.90
64394;BMP280;50712;49.506;10.400;2022-09-09T02:58:41;97676.28;;;18.90
64394;BMP280;50712;49.506;10.400;2022-09-09T02:59:12;97679.81;;;18.90
64394;BMP280;50712;49.506;10.400;2022-09-09T02:59:44;97676.28;;;18.90
64394;BMP280;50712;49.506;10.400;2022-09-09T03:00:15;97680.56;;;18.91
64394;BMP280;50712;49.506;10.400;2022-09-09T03:00:46;97679.06;;;18.90
64394;BMP280;50712;49.506;10.400;2022-09-09T03:01:18;97683.31;;;18.91
64394;BMP280;50712;49.506;10.400;2022-09-09T03:01:49;97682.56;;;18.90
64394;BMP280;50712;49.506;10.400;2022-09-09T03:02:19;97682.03;;;18.92
64394;BMP280;50712;49.506;10.400;2022-09-09T03:02:55;97680.56;;;18.91
64394;BMP280;50712;49.506;10.400;2022-09-09T03:03:26;97682.03;;;18.92
64394;BMP280;50712;49.506;10.400;2022-09-09T03:03:57;97685.53;;;18.92
64394;BMP280;50712;49.506;10.400;2022-09-09T03:04:27;97679.25;;;18.92
64394;BMP280;50712;49.506;10.400;2022-09-09T03:05:00;97680.03;;;18.92
64394;BMP280;50712;49.506;10.400;2022-09-09T03:05:30;97677.25;;;18.92
64394;BMP280;50712;49.506;10.400;2022-09-09T03:06:02;97682.78;;;18.92
64394;BMP280;50712;49.506;10.400;2022-09-09T03:06:32;97678.78;;;18.93
64394;BMP280;50712;49.506;10.400;2022-09-09T03:07:11;97680.03;;;18.92
64394;BMP280;50712;49.506;10.400;2022-09-09T03:07:44;97678.00;;;18.93
64394;BMP280;50712;49.506;10.400;2022-09-09T03:08:15;97675.25;;;18.93
64394;BMP280;50712;49.506;10.400;2022-09-09T03:08:47;97677.25;;;18.92
64394;BMP280;50712;49.506;10.400;2022-09-09T03:09:20;97675.25;;;18.93
64394;BMP280;50712;49.506;10.400;2022-09-09T03:09:53;97674.50;;;18.92
64394;BMP280;50712;49.506;10.400;2022-09-09T03:10:28;97673.75;;;18.92
64394;BMP280;50712;49.506;10.400;2022-09-09T03:10:59;97668.97;;;18.92
64394;BMP280;50712;49.506;10.400;2022-09-09T03:11:32;97678.00;;;18.93
64394;BMP280;50712;49.506;10.400;2022-09-09T03:12:02;97672.50;;;18.93
64394;BMP280;50712;49.506;10.400;2022-09-09T03:12:38;97667.72;;;18.93
64394;BMP280;50712;49.506;10.400;2022-09-09T03:13:08;97675.25;;;18.93
64394;BMP280;50712;49.506;10.400;2022-09-09T03:13:42;97672.72;;;18.95
64394;BMP280;50712;49.506;10.400;2022-09-09T03:14:14;97663.69;;;18.94
64394;BMP280;50712;49.506;10.400;2022-09-09T03:14:45;97669.22;;;18.94
64394;BMP280;50712;49.506;10.400;2022-09-09T03:15:17;97671.97;;;18.94
64394;BMP280;50712;49.506;10.400;2022-09-09T03:15:48;97671.25;;;18.94
64394;BMP280;50712;49.506;10.400;2022-09-09T03:16:23;97675.50;;;18.95
64394;BMP280;50712;49.506;10.400;2022-09-09T03:16:56;97677.50;;;18.94
64394;BMP280;50712;49.506;10.400;2022-09-09T03:17:31;97679.00;;;18.95
64394;BMP280;50712;49.506;10.400;2022-09-09T03:18:01;97681.53;;;18.93
64394;BMP280;50712;49.506;10.400;2022-09-09T03:18:32;97678.25;;;18.95
64394;BMP280;50712;49.506;10.400;2022-09-09T03:19:04;97681.03;;;18.95
64394;BMP280;50712;49.506;10.400;2022-09-09T03:19:35;97679.53;;;18.94
64394;BMP280;50712;49.506;10.400;2022-09-09T03:20:06;97678.78;;;18.93
64394;BMP280;50712;49.506;10.400;2022-09-09T03:20:40;97674.00;;;18.94
64394;BMP280;50712;49.506;10.400;2022-09-09T03:21:12;97676.78;;;18.94
64394;BMP280;50712;49.506;10.400;2022-09-09T03:21:45;97682.28;;;18.94
64394;BMP280;50712;49.506;10.400;2022-09-09T03:22:16;97679.53;;;18.94
64394;BMP280;50712;49.506;10.400;2022-09-09T03:22:47;97674.00;;;18.94
64394;BMP280;50712;49.506;10.400;2022-09-09T03:23:18;97677.50;;;18.94
64394;BMP280;50712;49.506;10.400;2022-09-09T03:23:50;97674.00;;;18.94
64394;BMP280;50712;49.506;10.400;2022-09-09T03:24:20;97674.00;;;18.94
64394;BMP280;50712;49.506;10.400;2022-09-09T03:24:52;97669.97;;;18.95
64394;BMP280;50712;49.506;10.400;2022-09-09T03:25:23;97669.97;;;18.95
64394;BMP280;50712;49.506;10.400;2022-09-09T03:25:55;97671.97;;;18.94
64394;BMP280;50712;49.506;10.400;2022-09-09T03:26:35;97672.72;;;18.95
64394;BMP280;50712;49.506;10.400;2022-09-09T03:27:07;97674.75;;;18.94
64394;BMP280;50712;49.506;10.400;2022-09-09T03:27:40;97667.97;;;18.95
64394;BMP280;50712;49.506;10.400;2022-09-09T03:28:11;97669.97;;;18.95
64394;BMP280;50712;49.506;10.400;2022-09-09T03:28:42;97667.22;;;18.95
64394;BMP280;50712;49.506;10.400;2022-09-09T03:29:14;97667.22;;;18.95
64394;BMP280;50712;49.506;10.400;2022-09-09T03:29:46;97667.22;;;18.95
64394;BMP280;50712;49.506;10.400;2022-09-09T03:30:23;97670.72;;;18.95
64394;BMP280;50712;49.506;10.400;2022-09-09T03:30:57;97673.50;;;18.95
64394;BMP280;50712;49.506;10.400;2022-09-09T03:31:29;97674.22;;;18.96
64394;BMP280;50712;49.506;10.400;2022-09-09T03:32:00;97667.97;;;18.95
64394;BMP280;50712;49.506;10.400;2022-09-09T03:32:31;97670.72;;;18.95
64394;BMP280;50712;49.506;10.400;2022-09-09T03:33:02;97669.97;;;18.95
64394;BMP280;50712;49.506;10.400;2022-09-09T03:33:36;97671.97;;;18.94
64394;BMP280;50712;49.506;10.400;2022-09-09T03:34:08;97669.97;;;18.95
64394;BMP280;50712;49.506;10.400;2022-09-09T03:34:39;97669.22;;;18.94
64394;BMP280;50712;49.506;10.400;2022-09-09T03:35:12;97662.22;;;18.93
64394;BMP280;50712;49.506;10.400;2022-09-09T03:35:46;97668.50;;;18.94
64394;BMP280;50712;49.506;10.400;2022-09-09T03:36:21;97664.97;;;18.93
64394;BMP280;50712;49.506;10.400;2022-09-09T03:36:51;97667.72;;;18.93
64394;BMP280;50712;49.506;10.400;2022-09-09T03:37:22;97671.75;;;18.92
64394;BMP280;50712;49.506;10.400;2022-09-09T03:37:54;97664.22;;;18.93
64394;BMP280;50712;49.506;10.400;2022-09-09T03:38:25;97664.69;;;18.91
64394;BMP280;50712;49.506;10.400;2022-09-09T03:38:56;97673.75;;;18.92
64394;BMP280;50712;49.506;10.400;2022-09-09T03:39:29;97662.50;;;18.90
64394;BMP280;50712;49.506;10.400;2022-09-09T03:39:59;97665.25;;;18.90
64394;BMP280;50712;49.506;10.400;2022-09-09T03:40:29;97668.00;;;18.90
64394;BMP280;50712;49.506;10.400;2022-09-09T03:41:01;97665.25;;;18.90
64394;BMP280;50712;49.506;10.400;2022-09-09T03:41:33;97666.50;;;18.89
64394;BMP280;50712;49.506;10.400;2022-09-09T03:42:05;97672.00;;;18.89
64394;BMP280;50712;49.506;10.400;2022-09-09T03:42:37;97673.28;;;18.88
64394;BMP280;50712;49.506;10.400;2022-09-09T03:43:08;97673.28;;;18.88
64394;BMP280;50712;49.506;10.400;2022-09-09T03:43:39;97667.00;;;18.87
64394;BMP280;50712;49.506;10.400;2022-09-09T03:44:10;97667.00;;;18.87
64394;BMP280;50712;49.506;10.400;2022-09-09T03:44:43;97662.75;;;18.86
64394;BMP280;50712;49.506;10.400;2022-09-09T03:45:16;97662.00;;;18.86
64394;BMP280;50712;49.506;10.400;2022-09-09T03:45:47;97662.75;;;18.86
64394;BMP280;50712;49.506;10.400;2022-09-09T03:46:19;97662.00;;;18.86
64394;BMP280;50712;49.506;10.400;2022-09-09T03:46:50;97661.25;;;18.85
64394;BMP280;50712;49.506;10.400;2022-09-09T03:47:21;97661.25;;;18.85
64394;BMP280;50712;49.506;10.400;2022-09-09T03:47:58;97653.47;;;18.84
64394;BMP280;50712;49.506;10.400;2022-09-09T03:48:30;97661.00;;;18.83
64394;BMP280;50712;49.506;10.400;2022-09-09T03:49:02;97656.25;;;18.84
64394;BMP280;50712;49.506;10.400;2022-09-09T03:49:35;97658.25;;;18.83
64394;BMP280;50712;49.506;10.400;2022-09-09T03:50:06;97659.00;;;18.84
64394;BMP280;50712;49.506;10.400;2022-09-09T03:50:44;97657.50;;;18.83
64394;BMP280;50712;49.506;10.400;2022-09-09T03:51:18;97658.75;;;18.82
64394;BMP280;50712;49.506;10.400;2022-09-09T03:51:50;97669.81;;;18.82
64394;BMP280;50712;49.506;10.400;2022-09-09T03:52:20;97669.81;;;18.82
64394;BMP280;50712;49.506;10.400;2022-09-09T03:52:55;97665.56;;;18.81
64394;BMP280;50712;49.506;10.400;2022-09-09T03:53:26;97663.56;;;18.81
64394;BMP280;50712;49.506;10.400;2022-09-09T03:53:57;97666.03;;;18.79
64394;BMP280;50712;49.506;10.400;2022-09-09T03:54:29;97671.56;;;18.79
64394;BMP280;50712;49.506;10.400;2022-09-09T03:55:00;97669.56;;;18.80
64394;BMP280;50712;49.506;10.400;2022-09-09T03:55:31;97667.31;;;18.78
64394;BMP280;50712;49.506;10.400;2022-09-09T03:56:02;97667.31;;;18.78
64394;BMP280;50712;49.506;10.400;2022-09-09T03:56:35;97674.13;;;18.77
64394;BMP280;50712;49.506;10.400;2022-09-09T03:57:06;97671.34;;;18.77
64394;BMP280;50712;49.506;10.400;2022-09-09T03:57:37;97666.31;;;18.76
64394;BMP280;50712;49.506;10.400;2022-09-09T03:58:14;97671.34;;;18.77
64394;BMP280;50712;49.506;10.400;2022-09-09T03:58:46;97669.59;;;18.74
64394;BMP280;50712;49.506;10.400;2022-09-09T03:59:17;97667.59;;;18.75
64394;BMP280;50712;49.506;10.400;2022-09-09T03:59:47;97666.84;;;18.74
64394;BMP280;50712;49.506;10.400;2022-09-09T04:00:19;97668.84;;;18.74
64394;BMP280;50712;49.506;10.400;2022-09-09T04:00:59;97662.56;;;18.73
64394;BMP280;50712;49.506;10.400;2022-09-09T04:01:31;97666.59;;;18.72
64394;BMP280;50712;49.506;10.400;2022-09-09T04:02:03;97670.84;;;18.73
64394;BMP280;50712;49.506;10.400;2022-09-09T04:02:34;97669.34;;;18.72
64394;BMP280;50712;49.506;10.400;2022-09-09T04:03:04;97672.88;;;18.73
64394;BMP280;50712;49.506;10.400;2022-09-09T04:03:36;97671.38;;;18.72
64394;BMP280;50712;49.506;10.400;2022-09-09T04:04:06;97667.34;;;18.73
64394;BMP280;50712;49.506;10.400;2022-09-09T04:04:37;97670.13;;;18.73
64394;BMP280;50712;49.506;10.400;2022-09-09T04:05:08;97671.38;;;18.72
64394;BMP280;50712;49.506;10.400;2022-09-09T04:05:39;97659.59;;;18.71